EWG9008 EDDL-EDXW
Flight info
| Callsign | EWG9008 |
|---|---|
| Flight time | 0h 41m |
| Altitude | 31000 |
| Route | MEVEL1Z MEVEL Y850 JUWGI Z529 SUQIF DCT ABFAD DCT OLDIP |
| Aircraft | A320/M-SDE3FGHIRWY/LB1 |
Departure
| Time | 2026-05-08 13:45 |
|---|---|
| Airport | Düsseldorf Airport (EDDL) |
Arrival
| Time | 2026-05-08 14:27 |
|---|---|
| Airport | Westerland Sylt Airport (EDXW) |
| Time | Latitude | Longitude | Altitude | Speed | Heading |
|---|---|---|---|---|---|
| 2026-05-08 13:23 | 51.28106 | 6.76719 | 129 ft | 0 kts | 276° |
| 2026-05-08 13:37 | 51.28106 | 6.76720 | 128 ft | 1 kts | 276° |
| 2026-05-08 13:38 | 51.28101 | 6.76757 | 125 ft | 4 kts | 299° |
| 2026-05-08 13:38 | 51.28084 | 6.76785 | 124 ft | 4 kts | 341° |
| 2026-05-08 13:38 | 51.28060 | 6.76788 | 129 ft | 2 kts | 17° |
| 2026-05-08 13:38 | 51.28059 | 6.76788 | 129 ft | 0 kts | 17° |
| 2026-05-08 13:40 | 51.28071 | 6.76794 | 129 ft | 8 kts | 17° |
| 2026-05-08 13:41 | 51.28156 | 6.76828 | 128 ft | 17 kts | 12° |
| 2026-05-08 13:41 | 51.28298 | 6.76826 | 124 ft | 22 kts | 321° |
| 2026-05-08 13:41 | 51.28403 | 6.76674 | 121 ft | 23 kts | 298° |
| 2026-05-08 13:41 | 51.28319 | 6.76431 | 123 ft | 29 kts | 231° |
| 2026-05-08 13:42 | 51.28184 | 6.76142 | 126 ft | 35 kts | 233° |
| 2026-05-08 13:42 | 51.28024 | 6.75805 | 128 ft | 38 kts | 232° |
| 2026-05-08 13:42 | 51.27885 | 6.75512 | 126 ft | 31 kts | 233° |
| 2026-05-08 13:42 | 51.27854 | 6.75335 | 122 ft | 5 kts | 324° |
| 2026-05-08 13:43 | 51.27859 | 6.75334 | 124 ft | 0 kts | 344° |
| 2026-05-08 13:43 | 51.27861 | 6.75333 | 124 ft | 0 kts | 342° |
| 2026-05-08 13:43 | 51.27862 | 6.75332 | 124 ft | 0 kts | 342° |
| 2026-05-08 13:43 | 51.27866 | 6.75330 | 124 ft | 4 kts | 340° |
| 2026-05-08 13:44 | 51.27930 | 6.75278 | 123 ft | 12 kts | 333° |
| 2026-05-08 13:44 | 51.27996 | 6.75276 | 123 ft | 8 kts | 32° |
| 2026-05-08 13:44 | 51.28013 | 6.75309 | 123 ft | 0 kts | 53° |
| 2026-05-08 13:45 | 51.28053 | 6.75395 | 122 ft | 38 kts | 53° |
| 2026-05-08 13:45 | 51.28348 | 6.76012 | 125 ft | 105 kts | 53° |
| 2026-05-08 13:45 | 51.28902 | 6.77178 | 138 ft | 157 kts | 52° |
| 2026-05-08 13:45 | 51.29579 | 6.78577 | 786 ft | 158 kts | 52° |
| 2026-05-08 13:46 | 51.30256 | 6.79970 | 1551 ft | 160 kts | 50° |
| 2026-05-08 13:46 | 51.30959 | 6.81446 | 2057 ft | 177 kts | 52° |
| 2026-05-08 13:46 | 51.31745 | 6.83119 | 2461 ft | 199 kts | 52° |
| 2026-05-08 13:46 | 51.32622 | 6.84984 | 2760 ft | 218 kts | 52° |
| 2026-05-08 13:47 | 51.33567 | 6.87001 | 3111 ft | 239 kts | 53° |
| 2026-05-08 13:47 | 51.34751 | 6.89034 | 3597 ft | 257 kts | 38° |
| 2026-05-08 13:47 | 51.36305 | 6.90515 | 4385 ft | 263 kts | 21° |
| 2026-05-08 13:47 | 51.38092 | 6.91260 | 5210 ft | 268 kts | 9° |
| 2026-05-08 13:48 | 51.39947 | 6.91756 | 6088 ft | 264 kts | 8° |
| 2026-05-08 13:48 | 51.40464 | 6.91875 | 6578 ft | 256 kts | 7° |
| 2026-05-08 13:48 | 51.40673 | 6.91922 | 6715 ft | 254 kts | 8° |
| 2026-05-08 13:49 | 51.42407 | 6.92366 | 7439 ft | 264 kts | 9° |
| 2026-05-08 13:49 | 51.44287 | 6.92872 | 7913 ft | 280 kts | 9° |
| 2026-05-08 13:49 | 51.46235 | 6.93408 | 8664 ft | 285 kts | 9° |
| 2026-05-08 13:49 | 51.48190 | 6.93945 | 9443 ft | 289 kts | 9° |
| 2026-05-08 13:50 | 51.50217 | 6.94148 | 10210 ft | 293 kts | 355° |
| 2026-05-08 13:50 | 51.52269 | 6.93656 | 10682 ft | 307 kts | 349° |
| 2026-05-08 13:50 | 51.54465 | 6.93035 | 10877 ft | 331 kts | 349° |
| 2026-05-08 13:50 | 51.56812 | 6.92369 | 11022 ft | 354 kts | 349° |
| 2026-05-08 13:51 | 51.59278 | 6.91674 | 11247 ft | 371 kts | 349° |
| 2026-05-08 13:51 | 51.61853 | 6.90955 | 11807 ft | 378 kts | 349° |
| 2026-05-08 13:51 | 51.64464 | 6.90267 | 12452 ft | 382 kts | 353° |
| 2026-05-08 13:51 | 51.67140 | 6.90305 | 13087 ft | 387 kts | 7° |
| 2026-05-08 13:52 | 51.69762 | 6.91370 | 13716 ft | 392 kts | 20° |
| 2026-05-08 13:52 | 51.72196 | 6.93440 | 14293 ft | 397 kts | 34° |
| 2026-05-08 13:52 | 51.74266 | 6.96418 | 14836 ft | 401 kts | 49° |
| 2026-05-08 13:52 | 51.75944 | 6.99980 | 15378 ft | 404 kts | 53° |
| 2026-05-08 13:53 | 51.77617 | 7.03660 | 15923 ft | 407 kts | 53° |
| 2026-05-08 13:53 | 51.79303 | 7.07367 | 16461 ft | 410 kts | 53° |
| 2026-05-08 13:53 | 51.81000 | 7.11096 | 16991 ft | 413 kts | 53° |
| 2026-05-08 13:53 | 51.82717 | 7.14867 | 17513 ft | 416 kts | 53° |
| 2026-05-08 13:54 | 51.84437 | 7.18651 | 18024 ft | 419 kts | 53° |
| 2026-05-08 13:54 | 51.86260 | 7.22273 | 18509 ft | 421 kts | 45° |
| 2026-05-08 13:54 | 51.88295 | 7.25694 | 18934 ft | 424 kts | 45° |
| 2026-05-08 13:54 | 51.90355 | 7.29162 | 19374 ft | 426 kts | 45° |
| 2026-05-08 13:55 | 51.92419 | 7.32648 | 19803 ft | 429 kts | 45° |
| 2026-05-08 13:55 | 51.94472 | 7.36119 | 20233 ft | 431 kts | 45° |
| 2026-05-08 13:55 | 51.98651 | 7.43215 | 21067 ft | 437 kts | 45° |
| 2026-05-08 13:56 | 52.00764 | 7.46811 | 21477 ft | 439 kts | 45° |
| 2026-05-08 13:56 | 52.02879 | 7.50414 | 21869 ft | 442 kts | 45° |
| 2026-05-08 13:56 | 52.04986 | 7.54008 | 22272 ft | 444 kts | 45° |
| 2026-05-08 13:56 | 52.07121 | 7.57655 | 22652 ft | 447 kts | 45° |
| 2026-05-08 13:57 | 52.09266 | 7.61330 | 23028 ft | 449 kts | 45° |
| 2026-05-08 13:57 | 52.11428 | 7.65017 | 23403 ft | 451 kts | 45° |
| 2026-05-08 13:57 | 52.13641 | 7.68670 | 23759 ft | 453 kts | 41° |
| 2026-05-08 13:57 | 52.16138 | 7.71831 | 24059 ft | 454 kts | 31° |
| 2026-05-08 13:58 | 52.18914 | 7.74298 | 24369 ft | 454 kts | 22° |
| 2026-05-08 13:58 | 52.21851 | 7.76035 | 24662 ft | 455 kts | 13° |
| 2026-05-08 13:58 | 52.24956 | 7.77025 | 24957 ft | 454 kts | 4° |
| 2026-05-08 13:58 | 52.28113 | 7.77536 | 25245 ft | 456 kts | 4° |
| 2026-05-08 13:59 | 52.31277 | 7.78040 | 25534 ft | 457 kts | 4° |
| 2026-05-08 13:59 | 52.34455 | 7.78414 | 25806 ft | 458 kts | 358° |
| 2026-05-08 13:59 | 52.37639 | 7.78123 | 26073 ft | 458 kts | 352° |
| 2026-05-08 13:59 | 52.40819 | 7.77592 | 26344 ft | 460 kts | 352° |
| 2026-05-08 14:00 | 52.43970 | 7.77066 | 26602 ft | 461 kts | 352° |
| 2026-05-08 14:00 | 52.47183 | 7.76532 | 26862 ft | 463 kts | 352° |
| 2026-05-08 14:00 | 52.50396 | 7.76002 | 27156 ft | 464 kts | 352° |
| 2026-05-08 14:00 | 52.53601 | 7.75476 | 27564 ft | 462 kts | 352° |
| 2026-05-08 14:01 | 52.56812 | 7.75042 | 27955 ft | 462 kts | 354° |
| 2026-05-08 14:01 | 52.60027 | 7.74765 | 28345 ft | 461 kts | 355° |
| 2026-05-08 14:01 | 52.62146 | 7.74643 | 28596 ft | 461 kts | 356° |
| 2026-05-08 14:01 | 52.66399 | 7.74467 | 29098 ft | 460 kts | 356° |
| 2026-05-08 14:02 | 52.69605 | 7.74337 | 29476 ft | 459 kts | 356° |
| 2026-05-08 14:02 | 52.71764 | 7.74232 | 29735 ft | 458 kts | 356° |
| 2026-05-08 14:02 | 52.74914 | 7.74045 | 30116 ft | 457 kts | 355° |
| 2026-05-08 14:02 | 52.78088 | 7.73821 | 30464 ft | 456 kts | 355° |
| 2026-05-08 14:03 | 52.81260 | 7.73580 | 30782 ft | 455 kts | 355° |
| 2026-05-08 14:03 | 52.84431 | 7.73337 | 31074 ft | 455 kts | 355° |
| 2026-05-08 14:03 | 52.87606 | 7.73099 | 31160 ft | 458 kts | 355° |
| 2026-05-08 14:04 | 52.93955 | 7.72648 | 31164 ft | 460 kts | 355° |
| 2026-05-08 14:04 | 53.00281 | 7.71450 | 31180 ft | 455 kts | 343° |
| 2026-05-08 14:05 | 53.06309 | 7.68306 | 31166 ft | 453 kts | 339° |
| 2026-05-08 14:05 | 53.12321 | 7.65077 | 31169 ft | 453 kts | 339° |
| 2026-05-08 14:06 | 53.18505 | 7.63342 | 31163 ft | 459 kts | 359° |
| 2026-05-08 14:06 | 53.24788 | 7.65493 | 31161 ft | 465 kts | 20° |
| 2026-05-08 14:06 | 53.27667 | 7.67986 | 31158 ft | 468 kts | 31° |
| 2026-05-08 14:07 | 53.30291 | 7.71256 | 31156 ft | 470 kts | 36° |
| 2026-05-08 14:07 | 53.35412 | 7.77989 | 31155 ft | 470 kts | 36° |
| 2026-05-08 14:08 | 53.40563 | 7.84774 | 31160 ft | 471 kts | 36° |
| 2026-05-08 14:08 | 53.45715 | 7.91574 | 31153 ft | 471 kts | 36° |
| 2026-05-08 14:09 | 53.50867 | 7.98408 | 30863 ft | 472 kts | 36° |
| 2026-05-08 14:09 | 53.53412 | 8.01791 | 30627 ft | 472 kts | 36° |
| 2026-05-08 14:09 | 53.55994 | 8.05230 | 30372 ft | 472 kts | 36° |
| 2026-05-08 14:09 | 53.58573 | 8.08674 | 30111 ft | 473 kts | 36° |
| 2026-05-08 14:10 | 53.61155 | 8.12125 | 29823 ft | 473 kts | 36° |
| 2026-05-08 14:10 | 53.63741 | 8.15583 | 29392 ft | 473 kts | 36° |
| 2026-05-08 14:10 | 53.66302 | 8.19005 | 28082 ft | 479 kts | 36° |
| 2026-05-08 14:10 | 53.68929 | 8.22521 | 26913 ft | 483 kts | 36° |
| 2026-05-08 14:11 | 53.71584 | 8.26085 | 25637 ft | 489 kts | 36° |
| 2026-05-08 14:11 | 53.74259 | 8.29684 | 24361 ft | 494 kts | 36° |
| 2026-05-08 14:11 | 53.76948 | 8.33316 | 23522 ft | 489 kts | 37° |
| 2026-05-08 14:11 | 53.79548 | 8.36838 | 22724 ft | 481 kts | 37° |
| 2026-05-08 14:12 | 53.82152 | 8.40367 | 21899 ft | 475 kts | 37° |
| 2026-05-08 14:12 | 53.84728 | 8.43857 | 21123 ft | 469 kts | 37° |
| 2026-05-08 14:12 | 53.87241 | 8.47265 | 20353 ft | 464 kts | 37° |
| 2026-05-08 14:12 | 53.89763 | 8.50694 | 19601 ft | 459 kts | 37° |
| 2026-05-08 14:13 | 53.92244 | 8.54066 | 18877 ft | 454 kts | 36° |
| 2026-05-08 14:13 | 53.94864 | 8.56981 | 18146 ft | 448 kts | 26° |
| 2026-05-08 14:13 | 53.97704 | 8.59074 | 17373 ft | 441 kts | 17° |
| 2026-05-08 14:13 | 54.00643 | 8.60348 | 16285 ft | 429 kts | 8° |
| 2026-05-08 14:14 | 54.03557 | 8.60889 | 15211 ft | 420 kts | 4° |
| 2026-05-08 14:14 | 54.06402 | 8.61333 | 14648 ft | 399 kts | 4° |
| 2026-05-08 14:14 | 54.09134 | 8.61764 | 14072 ft | 393 kts | 4° |
| 2026-05-08 14:14 | 54.11856 | 8.62197 | 13435 ft | 391 kts | 5° |
| 2026-05-08 14:15 | 54.14532 | 8.62628 | 12865 ft | 387 kts | 5° |
| 2026-05-08 14:15 | 54.17205 | 8.63064 | 12295 ft | 384 kts | 5° |
| 2026-05-08 14:15 | 54.19861 | 8.63500 | 11722 ft | 381 kts | 5° |
| 2026-05-08 14:15 | 54.22477 | 8.63927 | 11445 ft | 370 kts | 5° |
| 2026-05-08 14:16 | 54.24958 | 8.64327 | 11325 ft | 355 kts | 5° |
| 2026-05-08 14:16 | 54.27366 | 8.64714 | 11199 ft | 341 kts | 5° |
| 2026-05-08 14:16 | 54.29689 | 8.65093 | 11072 ft | 328 kts | 5° |
| 2026-05-08 14:16 | 54.31922 | 8.65462 | 10946 ft | 317 kts | 5° |
| 2026-05-08 14:17 | 54.34085 | 8.65815 | 10825 ft | 307 kts | 5° |
| 2026-05-08 14:17 | 54.36161 | 8.66155 | 10618 ft | 300 kts | 5° |
| 2026-05-08 14:17 | 54.38227 | 8.66495 | 10494 ft | 296 kts | 5° |
| 2026-05-08 14:17 | 54.40284 | 8.66831 | 10428 ft | 297 kts | 5° |
| 2026-05-08 14:18 | 54.42338 | 8.67168 | 10322 ft | 296 kts | 5° |
| 2026-05-08 14:18 | 54.44387 | 8.67506 | 10197 ft | 295 kts | 6° |
| 2026-05-08 14:18 | 54.46451 | 8.67847 | 9709 ft | 301 kts | 6° |
| 2026-05-08 14:18 | 54.48516 | 8.68187 | 9421 ft | 295 kts | 6° |
| 2026-05-08 14:19 | 54.50560 | 8.68522 | 9054 ft | 293 kts | 6° |
| 2026-05-08 14:19 | 54.52557 | 8.68850 | 8683 ft | 291 kts | 6° |
| 2026-05-08 14:19 | 54.54553 | 8.69178 | 8226 ft | 286 kts | 7° |
| 2026-05-08 14:19 | 54.56529 | 8.69504 | 7606 ft | 283 kts | 7° |
| 2026-05-08 14:20 | 54.58473 | 8.69827 | 6997 ft | 279 kts | 9° |
| 2026-05-08 14:20 | 54.60400 | 8.69991 | 6371 ft | 277 kts | 359° |
| 2026-05-08 14:20 | 54.62276 | 8.69293 | 5738 ft | 277 kts | 341° |
| 2026-05-08 14:20 | 54.63942 | 8.67698 | 5360 ft | 266 kts | 326° |
| 2026-05-08 14:21 | 54.65397 | 8.65891 | 5217 ft | 252 kts | 327° |
| 2026-05-08 14:21 | 54.66811 | 8.64163 | 5105 ft | 253 kts | 327° |
| 2026-05-08 14:21 | 54.68253 | 8.62425 | 4992 ft | 252 kts | 327° |
| 2026-05-08 14:21 | 54.69692 | 8.60674 | 4876 ft | 252 kts | 327° |
| 2026-05-08 14:22 | 54.71127 | 8.58919 | 4681 ft | 252 kts | 327° |
| 2026-05-08 14:22 | 54.72561 | 8.57163 | 4357 ft | 251 kts | 327° |
| 2026-05-08 14:22 | 54.73366 | 8.56176 | 4171 ft | 250 kts | 327° |
| 2026-05-08 14:23 | 54.74182 | 8.55178 | 3977 ft | 250 kts | 327° |
| 2026-05-08 14:23 | 54.75600 | 8.53439 | 3639 ft | 249 kts | 327° |
| 2026-05-08 14:23 | 54.77016 | 8.51699 | 3307 ft | 248 kts | 327° |
| 2026-05-08 14:24 | 54.78424 | 8.49968 | 2969 ft | 249 kts | 327° |
| 2026-05-08 14:24 | 54.79834 | 8.48235 | 2618 ft | 246 kts | 327° |
| 2026-05-08 14:24 | 54.81200 | 8.46552 | 2292 ft | 234 kts | 326° |
| 2026-05-08 14:24 | 54.82485 | 8.44969 | 1984 ft | 223 kts | 327° |
| 2026-05-08 14:25 | 54.83702 | 8.43467 | 1713 ft | 206 kts | 327° |
| 2026-05-08 14:25 | 54.84835 | 8.42069 | 1441 ft | 194 kts | 327° |
| 2026-05-08 14:25 | 54.85891 | 8.40766 | 1194 ft | 176 kts | 327° |
| 2026-05-08 14:25 | 54.86846 | 8.39585 | 929 ft | 161 kts | 327° |
| 2026-05-08 14:26 | 54.87730 | 8.38489 | 730 ft | 152 kts | 326° |
| 2026-05-08 14:26 | 54.88579 | 8.37447 | 539 ft | 149 kts | 324° |
| 2026-05-08 14:26 | 54.89417 | 8.36408 | 320 ft | 147 kts | 325° |
| 2026-05-08 14:26 | 54.90223 | 8.35414 | 114 ft | 138 kts | 323° |
| 2026-05-08 14:27 | 54.90963 | 8.34494 | 36 ft | 116 kts | 324° |
| 2026-05-08 14:27 | 54.91469 | 8.33866 | 35 ft | 61 kts | 324° |
| 2026-05-08 14:27 | 54.91674 | 8.33575 | 36 ft | 26 kts | 299° |
| 2026-05-08 14:27 | 54.91743 | 8.33288 | 34 ft | 26 kts | 294° |
| 2026-05-08 14:28 | 54.91734 | 8.33182 | 35 ft | 5 kts | 185° |
| 2026-05-08 14:28 | 54.91662 | 8.33176 | 35 ft | 13 kts | 180° |
| 2026-05-08 14:28 | 54.91574 | 8.33175 | 33 ft | 13 kts | 180° |
| 2026-05-08 14:28 | 54.91476 | 8.33186 | 29 ft | 14 kts | 158° |
| 2026-05-08 14:29 | 54.91394 | 8.33222 | 29 ft | 11 kts | 213° |
| 2026-05-08 14:29 | 54.91385 | 8.33135 | 29 ft | 0 kts | 271° |